sensor_id;sensor_type;location;lat;lon;timestamp;temperature;humidity
2851;DHT22;1433;49.976;8.342;2023-02-11T00:01:12;2.10;99.90
2851;DHT22;1433;49.976;8.342;2023-02-11T00:03:37;2.10;99.90
2851;DHT22;1433;49.976;8.342;2023-02-11T00:06:06;2.10;99.90
2851;DHT22;1433;49.976;8.342;2023-02-11T00:08:36;2.10;99.90
2851;DHT22;1433;49.976;8.342;2023-02-11T00:11:03;2.10;99.90
2851;DHT22;1433;49.976;8.342;2023-02-11T00:13:36;2.20;99.90
2851;DHT22;1433;49.976;8.342;2023-02-11T00:16:08;2.20;99.90
2851;DHT22;1433;49.976;8.342;2023-02-11T00:18:35;2.20;99.90
2851;DHT22;1433;49.976;8.342;2023-02-11T00:21:06;2.20;99.90
2851;DHT22;1433;49.976;8.342;2023-02-11T00:23:37;2.20;99.90
2851;DHT22;1433;49.976;8.342;2023-02-11T00:26:15;2.20;99.90
2851;DHT22;1433;49.976;8.342;2023-02-11T00:28:44;2.30;99.90
2851;DHT22;1433;49.976;8.342;2023-02-11T00:31:12;2.30;99.90
2851;DHT22;1433;49.976;8.342;2023-02-11T00:33:39;2.30;99.90
2851;DHT22;1433;49.976;8.342;2023-02-11T00:36:09;2.40;99.90
2851;DHT22;1433;49.976;8.342;2023-02-11T00:38:44;2.40;99.90
2851;DHT22;1433;49.976;8.342;2023-02-11T00:41:12;2.50;99.90
2851;DHT22;1433;49.976;8.342;2023-02-11T00:43:40;2.50;99.90
2851;DHT22;1433;49.976;8.342;2023-02-11T00:46:07;2.50;99.90
2851;DHT22;1433;49.976;8.342;2023-02-11T00:48:33;2.50;99.90
2851;DHT22;1433;49.976;8.342;2023-02-11T00:51:01;2.60;99.90
2851;DHT22;1433;49.976;8.342;2023-02-11T00:53:29;2.60;99.90
2851;DHT22;1433;49.976;8.342;2023-02-11T00:55:56;2.60;99.90
2851;DHT22;1433;49.976;8.342;2023-02-11T00:58:24;2.60;99.90
2851;DHT22;1433;49.976;8.342;2023-02-11T01:00:50;2.60;99.90
2851;DHT22;1433;49.976;8.342;2023-02-11T01:03:17;2.60;99.90
2851;DHT22;1433;49.976;8.342;2023-02-11T01:05:43;2.60;99.90
2851;DHT22;1433;49.976;8.342;2023-02-11T01:08:10;2.50;99.90
2851;DHT22;1433;49.976;8.342;2023-02-11T01:10:37;2.50;99.90
2851;DHT22;1433;49.976;8.342;2023-02-11T01:13:03;2.60;99.90
2851;DHT22;1433;49.976;8.342;2023-02-11T01:15:32;2.40;99.90
2851;DHT22;1433;49.976;8.342;2023-02-11T01:17:58;2.40;99.90
2851;DHT22;1433;49.976;8.342;2023-02-11T01:20:26;2.40;99.90
2851;DHT22;1433;49.976;8.342;2023-02-11T01:22:53;2.50;99.90
2851;DHT22;1433;49.976;8.342;2023-02-11T01:25:19;2.50;99.90
2851;DHT22;1433;49.976;8.342;2023-02-11T01:27:46;2.50;99.90
2851;DHT22;1433;49.976;8.342;2023-02-11T01:30:13;2.50;99.90
2851;DHT22;1433;49.976;8.342;2023-02-11T01:32:39;2.50;99.90
2851;DHT22;1433;49.976;8.342;2023-02-11T01:35:07;2.50;99.90
2851;DHT22;1433;49.976;8.342;2023-02-11T01:37:35;2.50;99.90
2851;DHT22;1433;49.976;8.342;2023-02-11T01:40:03;2.50;99.90
2851;DHT22;1433;49.976;8.342;2023-02-11T01:42:33;2.50;99.90
2851;DHT22;1433;49.976;8.342;2023-02-11T01:45:39;2.50;99.90
2851;DHT22;1433;49.976;8.342;2023-02-11T01:47:49;2.50;99.90
2851;DHT22;1433;49.976;8.342;2023-02-11T01:50:17;2.50;99.90
2851;DHT22;1433;49.976;8.342;2023-02-11T01:52:45;2.50;99.90
2851;DHT22;1433;49.976;8.342;2023-02-11T01:55:14;2.50;99.90
2851;DHT22;1433;49.976;8.342;2023-02-11T01:58:01;2.50;99.90
2851;DHT22;1433;49.976;8.342;2023-02-11T02:00:36;2.50;99.90
2851;DHT22;1433;49.976;8.342;2023-02-11T02:03:11;2.60;99.90
2851;DHT22;1433;49.976;8.342;2023-02-11T02:06:05;2.50;99.90
2851;DHT22;1433;49.976;8.342;2023-02-11T02:08:43;2.60;99.90
2851;DHT22;1433;49.976;8.342;2023-02-11T02:11:15;2.50;99.90
2851;DHT22;1433;49.976;8.342;2023-02-11T02:13:42;2.50;99.90
2851;DHT22;1433;49.976;8.342;2023-02-11T02:16:14;2.60;99.90
2851;DHT22;1433;49.976;8.342;2023-02-11T02:19:08;2.60;99.90
2851;DHT22;1433;49.976;8.342;2023-02-11T02:27:53;2.60;99.90
2851;DHT22;1433;49.976;8.342;2023-02-11T02:30:45;2.60;99.90
2851;DHT22;1433;49.976;8.342;2023-02-11T02:33:40;2.50;99.90
2851;DHT22;1433;49.976;8.342;2023-02-11T02:36:14;2.50;99.90
2851;DHT22;1433;49.976;8.342;2023-02-11T02:38:55;2.50;99.90
2851;DHT22;1433;49.976;8.342;2023-02-11T02:41:31;2.60;99.90
2851;DHT22;1433;49.976;8.342;2023-02-11T02:44:00;2.60;99.90
2851;DHT22;1433;49.976;8.342;2023-02-11T02:46:29;2.60;99.90
2851;DHT22;1433;49.976;8.342;2023-02-11T02:48:57;2.60;99.90
2851;DHT22;1433;49.976;8.342;2023-02-11T03:00:12;2.60;99.90
2851;DHT22;1433;49.976;8.342;2023-02-11T03:11:06;2.60;99.90
2851;DHT22;1433;49.976;8.342;2023-02-11T03:13:36;2.60;99.90
2851;DHT22;1433;49.976;8.342;2023-02-11T03:16:14;2.60;99.90
2851;DHT22;1433;49.976;8.342;2023-02-11T03:18:43;2.60;99.90
2851;DHT22;1433;49.976;8.342;2023-02-11T03:21:15;2.50;99.90
2851;DHT22;1433;49.976;8.342;2023-02-11T03:23:53;2.50;99.90
2851;DHT22;1433;49.976;8.342;2023-02-11T03:26:29;2.50;99.90
2851;DHT22;1433;49.976;8.342;2023-02-11T03:29:17;2.50;99.90
2851;DHT22;1433;49.976;8.342;2023-02-11T03:34:57;2.50;99.90
2851;DHT22;1433;49.976;8.342;2023-02-11T03:37:34;2.60;99.90
2851;DHT22;1433;49.976;8.342;2023-02-11T03:40:18;2.50;99.90
2851;DHT22;1433;49.976;8.342;2023-02-11T03:42:51;2.50;99.90
2851;DHT22;1433;49.976;8.342;2023-02-11T03:45:35;2.60;99.90
2851;DHT22;1433;49.976;8.342;2023-02-11T03:48:06;2.60;99.90
2851;DHT22;1433;49.976;8.342;2023-02-11T03:50:35;2.60;99.90
2851;DHT22;1433;49.976;8.342;2023-02-11T03:53:03;2.50;99.90
2851;DHT22;1433;49.976;8.342;2023-02-11T03:55:32;2.50;99.90
2851;DHT22;1433;49.976;8.342;2023-02-11T03:58:02;2.50;99.90
2851;DHT22;1433;49.976;8.342;2023-02-11T04:00:31;2.40;99.90
2851;DHT22;1433;49.976;8.342;2023-02-11T04:02:59;2.30;99.90
2851;DHT22;1433;49.976;8.342;2023-02-11T04:05:25;2.30;99.90
2851;DHT22;1433;49.976;8.342;2023-02-11T04:07:54;2.20;99.90
2851;DHT22;1433;49.976;8.342;2023-02-11T04:10:20;2.20;99.90
2851;DHT22;1433;49.976;8.342;2023-02-11T04:12:47;2.10;99.90
2851;DHT22;1433;49.976;8.342;2023-02-11T04:15:13;2.10;99.90
2851;DHT22;1433;49.976;8.342;2023-02-11T04:17:40;2.00;99.90
2851;DHT22;1433;49.976;8.342;2023-02-11T04:20:07;1.90;99.90
2851;DHT22;1433;49.976;8.342;2023-02-11T04:22:34;1.80;99.90
2851;DHT22;1433;49.976;8.342;2023-02-11T04:25:00;1.70;99.90
2851;DHT22;1433;49.976;8.342;2023-02-11T04:27:26;1.60;99.90
2851;DHT22;1433;49.976;8.342;2023-02-11T04:29:53;1.70;99.90
2851;DHT22;1433;49.976;8.342;2023-02-11T04:32:19;1.70;99.90
2851;DHT22;1433;49.976;8.342;2023-02-11T04:34:45;1.80;99.90
2851;DHT22;1433;49.976;8.342;2023-02-11T04:37:11;1.80;99.90
2851;DHT22;1433;49.976;8.342;2023-02-11T04:39:38;1.80;99.90
2851;DHT22;1433;49.976;8.342;2023-02-11T04:42:04;1.80;99.90
2851;DHT22;1433;49.976;8.342;2023-02-11T04:44:30;1.80;99.90
2851;DHT22;1433;49.976;8.342;2023-02-11T04:46:57;1.80;99.90
2851;DHT22;1433;49.976;8.342;2023-02-11T04:49:24;1.80;99.90
2851;DHT22;1433;49.976;8.342;2023-02-11T04:51:50;1.80;99.90
2851;DHT22;1433;49.976;8.342;2023-02-11T04:54:16;1.90;99.90
2851;DHT22;1433;49.976;8.342;2023-02-11T04:56:43;1.90;99.90
2851;DHT22;1433;49.976;8.342;2023-02-11T04:59:09;2.00;99.90
2851;DHT22;1433;49.976;8.342;2023-02-11T05:01:37;2.00;99.90
2851;DHT22;1433;49.976;8.342;2023-02-11T05:04:04;2.00;99.90
2851;DHT22;1433;49.976;8.342;2023-02-11T05:06:30;2.00;99.90
2851;DHT22;1433;49.976;8.342;2023-02-11T05:08:56;1.90;99.90
2851;DHT22;1433;49.976;8.342;2023-02-11T05:11:24;1.90;99.90
2851;DHT22;1433;49.976;8.342;2023-02-11T05:13:51;1.80;99.90
2851;DHT22;1433;49.976;8.342;2023-02-11T05:16:17;1.70;99.90
2851;DHT22;1433;49.976;8.342;2023-02-11T05:18:44;1.60;99.90
2851;DHT22;1433;49.976;8.342;2023-02-11T05:21:13;1.50;99.90
2851;DHT22;1433;49.976;8.342;2023-02-11T05:23:42;1.50;99.90
2851;DHT22;1433;49.976;8.342;2023-02-11T05:26:11;1.30;99.90
2851;DHT22;1433;49.976;8.342;2023-02-11T05:28:38;1.30;99.90
2851;DHT22;1433;49.976;8.342;2023-02-11T05:31:06;1.30;99.90
2851;DHT22;1433;49.976;8.342;2023-02-11T05:33:33;1.30;99.90
2851;DHT22;1433;49.976;8.342;2023-02-11T05:36:02;1.40;99.90
2851;DHT22;1433;49.976;8.342;2023-02-11T05:38:30;1.50;99.90
2851;DHT22;1433;49.976;8.342;2023-02-11T05:40:56;1.50;99.90
2851;DHT22;1433;49.976;8.342;2023-02-11T05:43:23;1.60;99.90
2851;DHT22;1433;49.976;8.342;2023-02-11T05:45:49;1.60;99.90
2851;DHT22;1433;49.976;8.342;2023-02-11T05:48:16;1.60;99.90
2851;DHT22;1433;49.976;8.342;2023-02-11T05:50:42;1.70;99.90
2851;DHT22;1433;49.976;8.342;2023-02-11T05:53:09;1.70;99.90
2851;DHT22;1433;49.976;8.342;2023-02-11T05:55:36;1.70;99.90
2851;DHT22;1433;49.976;8.342;2023-02-11T05:58:02;1.80;99.90
2851;DHT22;1433;49.976;8.342;2023-02-11T06:00:29;1.80;99.90
2851;DHT22;1433;49.976;8.342;2023-02-11T06:02:55;1.90;99.90
2851;DHT22;1433;49.976;8.342;2023-02-11T06:05:21;1.90;99.90
2851;DHT22;1433;49.976;8.342;2023-02-11T06:07:47;1.90;99.90
2851;DHT22;1433;49.976;8.342;2023-02-11T06:10:14;1.90;99.90
2851;DHT22;1433;49.976;8.342;2023-02-11T06:12:40;2.00;99.90
2851;DHT22;1433;49.976;8.342;2023-02-11T06:15:06;2.00;99.90
2851;DHT22;1433;49.976;8.342;2023-02-11T06:17:33;2.10;99.90
2851;DHT22;1433;49.976;8.342;2023-02-11T06:20:02;2.10;99.90
2851;DHT22;1433;49.976;8.342;2023-02-11T06:22:30;2.00;99.90
2851;DHT22;1433;49.976;8.342;2023-02-11T06:24:57;2.00;99.90
2851;DHT22;1433;49.976;8.342;2023-02-11T06:27:23;2.00;99.90
2851;DHT22;1433;49.976;8.342;2023-02-11T06:29:50;1.90;99.90
2851;DHT22;1433;49.976;8.342;2023-02-11T06:32:18;1.90;99.90
2851;DHT22;1433;49.976;8.342;2023-02-11T06:34:45;2.00;99.90
2851;DHT22;1433;49.976;8.342;2023-02-11T06:37:11;2.00;99.90
2851;DHT22;1433;49.976;8.342;2023-02-11T06:39:37;2.00;99.90
2851;DHT22;1433;49.976;8.342;2023-02-11T06:42:04;2.00;99.90
2851;DHT22;1433;49.976;8.342;2023-02-11T06:44:30;2.00;99.90
2851;DHT22;1433;49.976;8.342;2023-02-11T06:46:57;2.10;99.90
2851;DHT22;1433;49.976;8.342;2023-02-11T06:49:23;2.10;99.90
2851;DHT22;1433;49.976;8.342;2023-02-11T06:51:49;2.10;99.90
2851;DHT22;1433;49.976;8.342;2023-02-11T06:54:15;2.20;99.90
2851;DHT22;1433;49.976;8.342;2023-02-11T06:56:41;2.20;99.90
2851;DHT22;1433;49.976;8.342;2023-02-11T06:59:14;2.20;99.90
2851;DHT22;1433;49.976;8.342;2023-02-11T07:01:41;2.00;99.90
2851;DHT22;1433;49.976;8.342;2023-02-11T07:04:07;2.10;99.90
2851;DHT22;1433;49.976;8.342;2023-02-11T07:06:34;2.10;99.90
2851;DHT22;1433;49.976;8.342;2023-02-11T07:09:03;2.10;99.90
2851;DHT22;1433;49.976;8.342;2023-02-11T07:11:30;2.00;99.90
2851;DHT22;1433;49.976;8.342;2023-02-11T07:14:06;2.00;99.90
2851;DHT22;1433;49.976;8.342;2023-02-11T07:16:33;1.90;99.90
2851;DHT22;1433;49.976;8.342;2023-02-11T07:19:00;1.80;99.90
2851;DHT22;1433;49.976;8.342;2023-02-11T07:21:26;1.70;99.90
2851;DHT22;1433;49.976;8.342;2023-02-11T07:23:53;1.60;99.90
2851;DHT22;1433;49.976;8.342;2023-02-11T07:26:21;1.60;99.90
2851;DHT22;1433;49.976;8.342;2023-02-11T07:28:49;1.50;99.90
2851;DHT22;1433;49.976;8.342;2023-02-11T07:31:18;1.50;99.90
2851;DHT22;1433;49.976;8.342;2023-02-11T07:33:46;1.50;99.90
2851;DHT22;1433;49.976;8.342;2023-02-11T07:36:14;1.60;99.90
2851;DHT22;1433;49.976;8.342;2023-02-11T07:38:41;1.60;99.90
2851;DHT22;1433;49.976;8.342;2023-02-11T07:41:10;1.70;99.90
2851;DHT22;1433;49.976;8.342;2023-02-11T07:43:38;1.80;99.90
2851;DHT22;1433;49.976;8.342;2023-02-11T07:46:09;1.90;99.90
2851;DHT22;1433;49.976;8.342;2023-02-11T07:48:37;2.00;99.90
2851;DHT22;1433;49.976;8.342;2023-02-11T07:51:10;2.10;99.90
2851;DHT22;1433;49.976;8.342;2023-02-11T07:53:35;2.20;99.90
2851;DHT22;1433;49.976;8.342;2023-02-11T07:56:03;2.30;99.90
2851;DHT22;1433;49.976;8.342;2023-02-11T07:58:30;2.40;99.90
2851;DHT22;1433;49.976;8.342;2023-02-11T08:01:06;2.60;99.90
2851;DHT22;1433;49.976;8.342;2023-02-11T08:03:31;2.70;99.90
2851;DHT22;1433;49.976;8.342;2023-02-11T08:06:04;2.80;99.90
2851;DHT22;1433;49.976;8.342;2023-02-11T08:08:31;2.90;99.90
2851;DHT22;1433;49.976;8.342;2023-02-11T08:10:58;3.00;99.90
2851;DHT22;1433;49.976;8.342;2023-02-11T08:13:24;3.00;99.90
2851;DHT22;1433;49.976;8.342;2023-02-11T08:15:56;3.20;99.90
2851;DHT22;1433;49.976;8.342;2023-02-11T08:18:21;3.30;99.90
2851;DHT22;1433;49.976;8.342;2023-02-11T08:20:48;3.50;99.90
2851;DHT22;1433;49.976;8.342;2023-02-11T08:23:14;3.70;99.90
2851;DHT22;1433;49.976;8.342;2023-02-11T08:25:40;3.80;99.90
2851;DHT22;1433;49.976;8.342;2023-02-11T08:28:07;3.90;99.90
2851;DHT22;1433;49.976;8.342;2023-02-11T08:30:34;4.10;99.90
2851;DHT22;1433;49.976;8.342;2023-02-11T08:33:01;4.20;99.90
2851;DHT22;1433;49.976;8.342;2023-02-11T08:35:27;4.30;99.90
2851;DHT22;1433;49.976;8.342;2023-02-11T08:37:53;4.40;99.90
2851;DHT22;1433;49.976;8.342;2023-02-11T08:40:21;4.50;99.90
2851;DHT22;1433;49.976;8.342;2023-02-11T08:42:50;4.50;99.90
2851;DHT22;1433;49.976;8.342;2023-02-11T08:45:16;4.60;99.90
2851;DHT22;1433;49.976;8.342;2023-02-11T08:47:43;4.70;99.90
2851;DHT22;1433;49.976;8.342;2023-02-11T08:50:09;4.80;99.90
2851;DHT22;1433;49.976;8.342;2023-02-11T08:52:35;4.70;99.90
2851;DHT22;1433;49.976;8.342;2023-02-11T08:55:02;4.70;99.90
2851;DHT22;1433;49.976;8.342;2023-02-11T08:57:29;4.80;99.90
2851;DHT22;1433;49.976;8.342;2023-02-11T08:59:56;4.80;99.90
2851;DHT22;1433;49.976;8.342;2023-02-11T09:02:23;4.80;99.90
2851;DHT22;1433;49.976;8.342;2023-02-11T09:04:49;4.80;99.90
2851;DHT22;1433;49.976;8.342;2023-02-11T09:07:18;4.90;99.90
2851;DHT22;1433;49.976;8.342;2023-02-11T09:09:44;5.00;99.90
2851;DHT22;1433;49.976;8.342;2023-02-11T09:12:10;5.00;99.90
2851;DHT22;1433;49.976;8.342;2023-02-11T09:14:38;5.00;99.90
2851;DHT22;1433;49.976;8.342;2023-02-11T09:17:08;5.10;99.90
2851;DHT22;1433;49.976;8.342;2023-02-11T09:19:35;5.10;99.90
2851;DHT22;1433;49.976;8.342;2023-02-11T09:22:01;5.20;99.90
2851;DHT22;1433;49.976;8.342;2023-02-11T09:24:27;5.30;99.90
2851;DHT22;1433;49.976;8.342;2023-02-11T09:26:53;5.30;99.90
2851;DHT22;1433;49.976;8.342;2023-02-11T09:29:19;5.30;99.90
2851;DHT22;1433;49.976;8.342;2023-02-11T09:31:46;5.40;99.90
2851;DHT22;1433;49.976;8.342;2023-02-11T09:34:12;5.40;99.90
2851;DHT22;1433;49.976;8.342;2023-02-11T09:36:40;5.50;99.90
2851;DHT22;1433;49.976;8.342;2023-02-11T09:39:13;5.70;99.90
2851;DHT22;1433;49.976;8.342;2023-02-11T09:42:02;5.90;99.90
2851;DHT22;1433;49.976;8.342;2023-02-11T09:44:36;6.00;99.90
2851;DHT22;1433;49.976;8.342;2023-02-11T09:47:23;6.30;99.90
2851;DHT22;1433;49.976;8.342;2023-02-11T09:50:04;6.40;99.90
2851;DHT22;1433;49.976;8.342;2023-02-11T09:57:48;6.80;99.90
2851;DHT22;1433;49.976;8.342;2023-02-11T10:11:37;6.70;99.90
2851;DHT22;1433;49.976;8.342;2023-02-11T10:20:00;6.90;99.90
2851;DHT22;1433;49.976;8.342;2023-02-11T10:22:40;6.90;99.90
2851;DHT22;1433;49.976;8.342;2023-02-11T10:25:24;7.20;99.90
2851;DHT22;1433;49.976;8.342;2023-02-11T10:27:56;7.20;99.90
2851;DHT22;1433;49.976;8.342;2023-02-11T10:30:38;7.30;99.90
2851;DHT22;1433;49.976;8.342;2023-02-11T10:33:42;7.30;99.90
2851;DHT22;1433;49.976;8.342;2023-02-11T10:36:11;7.30;99.90
2851;DHT22;1433;49.976;8.342;2023-02-11T10:38:38;7.40;99.90
2851;DHT22;1433;49.976;8.342;2023-02-11T10:41:05;7.30;99.90
2851;DHT22;1433;49.976;8.342;2023-02-11T10:43:32;7.10;99.90
2851;DHT22;1433;49.976;8.342;2023-02-11T10:46:01;7.20;99.90
2851;DHT22;1433;49.976;8.342;2023-02-11T10:48:46;7.20;99.90
2851;DHT22;1433;49.976;8.342;2023-02-11T10:51:26;7.30;99.90
2851;DHT22;1433;49.976;8.342;2023-02-11T10:56:48;7.70;99.90
2851;DHT22;1433;49.976;8.342;2023-02-11T10:59:34;7.70;99.90
2851;DHT22;1433;49.976;8.342;2023-02-11T11:02:23;7.70;99.90
2851;DHT22;1433;49.976;8.342;2023-02-11T11:04:59;7.80;99.90
2851;DHT22;1433;49.976;8.342;2023-02-11T11:07:30;7.80;99.90
2851;DHT22;1433;49.976;8.342;2023-02-11T11:10:24;7.90;99.90
2851;DHT22;1433;49.976;8.342;2023-02-11T11:15:16;7.90;99.90
2851;DHT22;1433;49.976;8.342;2023-02-11T11:17:48;7.80;99.90
2851;DHT22;1433;49.976;8.342;2023-02-11T11:23:17;7.50;99.90
2851;DHT22;1433;49.976;8.342;2023-02-11T11:28:53;7.80;99.90
2851;DHT22;1433;49.976;8.342;2023-02-11T11:31:30;7.90;99.90
2851;DHT22;1433;49.976;8.342;2023-02-11T11:34:35;7.80;99.90
2851;DHT22;1433;49.976;8.342;2023-02-11T11:37:12;7.90;99.90
2851;DHT22;1433;49.976;8.342;2023-02-11T11:39:40;8.20;99.90
2851;DHT22;1433;49.976;8.342;2023-02-11T11:42:26;8.20;99.90
2851;DHT22;1433;49.976;8.342;2023-02-11T11:45:29;8.00;99.90
2851;DHT22;1433;49.976;8.342;2023-02-11T11:53:06;8.40;99.90
2851;DHT22;1433;49.976;8.342;2023-02-11T11:55:56;8.30;99.90
2851;DHT22;1433;49.976;8.342;2023-02-11T11:58:40;8.20;99.90
2851;DHT22;1433;49.976;8.342;2023-02-11T12:12:41;8.50;99.90
2851;DHT22;1433;49.976;8.342;2023-02-11T12:15:33;8.50;99.90
2851;DHT22;1433;49.976;8.342;2023-02-11T12:21:20;8.80;99.90
2851;DHT22;1433;49.976;8.342;2023-02-11T12:27:04;9.10;99.90
2851;DHT22;1433;49.976;8.342;2023-02-11T12:29:57;9.30;99.90
2851;DHT22;1433;49.976;8.342;2023-02-11T12:32:30;9.50;99.90
2851;DHT22;1433;49.976;8.342;2023-02-11T12:35:14;9.30;99.90
2851;DHT22;1433;49.976;8.342;2023-02-11T12:38:17;9.00;99.90
2851;DHT22;1433;49.976;8.342;2023-02-11T12:43:53;9.10;99.90
2851;DHT22;1433;49.976;8.342;2023-02-11T12:50:06;8.90;99.90
2851;DHT22;1433;49.976;8.342;2023-02-11T12:52:07;8.90;99.90
2851;DHT22;1433;49.976;8.342;2023-02-11T12:54:57;8.90;99.90
2851;DHT22;1433;49.976;8.342;2023-02-11T12:57:27;8.90;99.90
2851;DHT22;1433;49.976;8.342;2023-02-11T13:02:47;8.80;99.90
2851;DHT22;1433;49.976;8.342;2023-02-11T13:05:51;8.60;99.90
2851;DHT22;1433;49.976;8.342;2023-02-11T13:08:37;8.70;99.90
2851;DHT22;1433;49.976;8.342;2023-02-11T13:11:16;8.70;99.90
2851;DHT22;1433;49.976;8.342;2023-02-11T13:13:56;8.80;99.90
2851;DHT22;1433;49.976;8.342;2023-02-11T13:16:40;8.70;99.90
2851;DHT22;1433;49.976;8.342;2023-02-11T13:22:22;8.40;99.90
2851;DHT22;1433;49.976;8.342;2023-02-11T13:30:33;8.50;99.90
2851;DHT22;1433;49.976;8.342;2023-02-11T13:33:04;8.70;99.90
2851;DHT22;1433;49.976;8.342;2023-02-11T13:35:43;8.80;99.90
2851;DHT22;1433;49.976;8.342;2023-02-11T13:38:22;8.80;99.90
2851;DHT22;1433;49.976;8.342;2023-02-11T13:43:42;8.80;99.90
2851;DHT22;1433;49.976;8.342;2023-02-11T13:46:13;9.00;99.90
2851;DHT22;1433;49.976;8.342;2023-02-11T13:48:49;8.90;99.90
2851;DHT22;1433;49.976;8.342;2023-02-11T13:51:38;8.80;99.90
2851;DHT22;1433;49.976;8.342;2023-02-11T13:54:06;8.80;99.90
2851;DHT22;1433;49.976;8.342;2023-02-11T13:56:36;8.80;99.90
2851;DHT22;1433;49.976;8.342;2023-02-11T14:14:27;8.90;99.90
2851;DHT22;1433;49.976;8.342;2023-02-11T14:19:41;9.10;99.90
2851;DHT22;1433;49.976;8.342;2023-02-11T14:41:22;8.90;99.90
2851;DHT22;1433;49.976;8.342;2023-02-11T14:43:56;8.90;99.90
2851;DHT22;1433;49.976;8.342;2023-02-11T14:46:25;9.00;99.90
2851;DHT22;1433;49.976;8.342;2023-02-11T14:48:53;8.90;99.90
2851;DHT22;1433;49.976;8.342;2023-02-11T14:51:28;8.80;99.90
2851;DHT22;1433;49.976;8.342;2023-02-11T14:54:03;8.80;99.90
2851;DHT22;1433;49.976;8.342;2023-02-11T14:56:40;8.70;99.90
2851;DHT22;1433;49.976;8.342;2023-02-11T14:59:19;8.70;99.90
2851;DHT22;1433;49.976;8.342;2023-02-11T15:01:51;8.80;99.90
2851;DHT22;1433;49.976;8.342;2023-02-11T15:04:30;8.80;99.90
2851;DHT22;1433;49.976;8.342;2023-02-11T15:07:02;8.80;99.90
2851;DHT22;1433;49.976;8.342;2023-02-11T15:09:38;8.80;99.90
2851;DHT22;1433;49.976;8.342;2023-02-11T15:12:17;8.80;99.90
2851;DHT22;1433;49.976;8.342;2023-02-11T15:14:53;8.80;99.90
2851;DHT22;1433;49.976;8.342;2023-02-11T15:17:23;8.80;99.90
2851;DHT22;1433;49.976;8.342;2023-02-11T15:19:53;8.90;99.90
2851;DHT22;1433;49.976;8.342;2023-02-11T15:22:24;8.80;99.90
2851;DHT22;1433;49.976;8.342;2023-02-11T15:25:01;8.90;99.90
2851;DHT22;1433;49.976;8.342;2023-02-11T15:27:40;9.00;99.90
2851;DHT22;1433;49.976;8.342;2023-02-11T15:30:28;9.00;99.90
2851;DHT22;1433;49.976;8.342;2023-02-11T15:32:58;9.00;99.90
2851;DHT22;1433;49.976;8.342;2023-02-11T15:35:30;9.00;99.90
2851;DHT22;1433;49.976;8.342;2023-02-11T15:38:01;9.00;99.90
2851;DHT22;1433;49.976;8.342;2023-02-11T15:40:31;9.10;99.90
2851;DHT22;1433;49.976;8.342;2023-02-11T15:43:01;9.00;99.90
2851;DHT22;1433;49.976;8.342;2023-02-11T15:45:35;8.90;99.90
2851;DHT22;1433;49.976;8.342;2023-02-11T15:48:12;8.80;99.90
2851;DHT22;1433;49.976;8.342;2023-02-11T15:50:51;8.80;99.90
2851;DHT22;1433;49.976;8.342;2023-02-11T15:53:37;8.80;99.90
2851;DHT22;1433;49.976;8.342;2023-02-11T15:56:21;8.90;99.90
2851;DHT22;1433;49.976;8.342;2023-02-11T15:58:52;8.90;99.90
2851;DHT22;1433;49.976;8.342;2023-02-11T16:01:33;8.90;99.90
2851;DHT22;1433;49.976;8.342;2023-02-11T16:04:02;8.90;99.90
2851;DHT22;1433;49.976;8.342;2023-02-11T16:06:38;8.90;99.90
2851;DHT22;1433;49.976;8.342;2023-02-11T16:14:31;8.90;99.90
2851;DHT22;1433;49.976;8.342;2023-02-11T16:17:08;8.90;99.90
2851;DHT22;1433;49.976;8.342;2023-02-11T16:19:43;8.80;99.90
2851;DHT22;1433;49.976;8.342;2023-02-11T16:22:17;8.80;99.90
2851;DHT22;1433;49.976;8.342;2023-02-11T16:24:46;8.70;99.90
2851;DHT22;1433;49.976;8.342;2023-02-11T16:27:27;8.70;99.90
2851;DHT22;1433;49.976;8.342;2023-02-11T16:30:04;8.70;99.90
2851;DHT22;1433;49.976;8.342;2023-02-11T16:32:34;8.60;99.90
2851;DHT22;1433;49.976;8.342;2023-02-11T16:35:00;8.50;99.90
2851;DHT22;1433;49.976;8.342;2023-02-11T16:37:27;8.50;99.90
2851;DHT22;1433;49.976;8.342;2023-02-11T16:39:54;8.50;99.90
2851;DHT22;1433;49.976;8.342;2023-02-11T16:42:21;8.50;99.90
2851;DHT22;1433;49.976;8.342;2023-02-11T16:44:48;8.40;99.90
2851;DHT22;1433;49.976;8.342;2023-02-11T16:47:26;8.40;99.90
2851;DHT22;1433;49.976;8.342;2023-02-11T16:49:54;8.30;99.90
2851;DHT22;1433;49.976;8.342;2023-02-11T16:52:23;8.30;99.90
2851;DHT22;1433;49.976;8.342;2023-02-11T16:54:51;8.30;99.90
2851;DHT22;1433;49.976;8.342;2023-02-11T16:57:23;8.20;99.90
2851;DHT22;1433;49.976;8.342;2023-02-11T16:59:51;8.20;99.90
2851;DHT22;1433;49.976;8.342;2023-02-11T17:04:53;8.10;99.90
2851;DHT22;1433;49.976;8.342;2023-02-11T17:07:20;8.00;99.90
2851;DHT22;1433;49.976;8.342;2023-02-11T17:09:47;8.00;99.90
2851;DHT22;1433;49.976;8.342;2023-02-11T17:12:13;7.90;99.90
2851;DHT22;1433;49.976;8.342;2023-02-11T17:14:39;8.00;99.90
2851;DHT22;1433;49.976;8.342;2023-02-11T17:17:06;8.00;99.90
2851;DHT22;1433;49.976;8.342;2023-02-11T17:19:32;8.00;99.90
2851;DHT22;1433;49.976;8.342;2023-02-11T17:21:59;7.90;99.90
2851;DHT22;1433;49.976;8.342;2023-02-11T17:24:25;7.90;99.90
2851;DHT22;1433;49.976;8.342;2023-02-11T17:26:51;7.90;99.90
2851;DHT22;1433;49.976;8.342;2023-02-11T17:29:20;7.80;99.90
2851;DHT22;1433;49.976;8.342;2023-02-11T17:31:49;7.80;99.90
2851;DHT22;1433;49.976;8.342;2023-02-11T17:34:18;7.70;99.90
2851;DHT22;1433;49.976;8.342;2023-02-11T17:36:45;7.60;99.90
2851;DHT22;1433;49.976;8.342;2023-02-11T17:39:11;7.60;99.90
2851;DHT22;1433;49.976;8.342;2023-02-11T17:41:39;7.60;99.90
2851;DHT22;1433;49.976;8.342;2023-02-11T17:44:06;7.60;99.90
2851;DHT22;1433;49.976;8.342;2023-02-11T17:46:34;7.50;99.90
2851;DHT22;1433;49.976;8.342;2023-02-11T17:49:01;7.50;99.90
2851;DHT22;1433;49.976;8.342;2023-02-11T17:51:30;7.50;99.90
2851;DHT22;1433;49.976;8.342;2023-02-11T17:54:01;7.50;99.90
2851;DHT22;1433;49.976;8.342;2023-02-11T17:56:33;7.60;99.90
2851;DHT22;1433;49.976;8.342;2023-02-11T17:59:03;7.50;99.90
2851;DHT22;1433;49.976;8.342;2023-02-11T18:01:32;7.50;99.90
2851;DHT22;1433;49.976;8.342;2023-02-11T18:03:59;7.50;99.90
2851;DHT22;1433;49.976;8.342;2023-02-11T18:06:25;7.50;99.90
2851;DHT22;1433;49.976;8.342;2023-02-11T18:08:54;7.60;99.90
2851;DHT22;1433;49.976;8.342;2023-02-11T18:11:24;7.60;99.90
2851;DHT22;1433;49.976;8.342;2023-02-11T18:13:51;7.60;99.90
2851;DHT22;1433;49.976;8.342;2023-02-11T18:16:20;7.60;99.90
2851;DHT22;1433;49.976;8.342;2023-02-11T18:18:47;7.60;99.90
2851;DHT22;1433;49.976;8.342;2023-02-11T18:21:16;7.60;99.90
2851;DHT22;1433;49.976;8.342;2023-02-11T18:23:44;7.60;99.90
2851;DHT22;1433;49.976;8.342;2023-02-11T18:26:13;7.60;99.90
2851;DHT22;1433;49.976;8.342;2023-02-11T18:28:41;7.60;99.90
2851;DHT22;1433;49.976;8.342;2023-02-11T18:31:08;7.60;99.90
2851;DHT22;1433;49.976;8.342;2023-02-11T18:33:36;7.60;99.90
2851;DHT22;1433;49.976;8.342;2023-02-11T18:36:09;7.50;99.90
2851;DHT22;1433;49.976;8.342;2023-02-11T18:38:37;7.60;99.90
2851;DHT22;1433;49.976;8.342;2023-02-11T18:41:04;7.60;99.90
2851;DHT22;1433;49.976;8.342;2023-02-11T18:43:30;7.60;99.90
2851;DHT22;1433;49.976;8.342;2023-02-11T18:46:00;7.70;99.90
2851;DHT22;1433;49.976;8.342;2023-02-11T18:48:27;7.60;99.90
2851;DHT22;1433;49.976;8.342;2023-02-11T18:50:54;7.60;99.90
2851;DHT22;1433;49.976;8.342;2023-02-11T18:53:22;7.60;99.90
2851;DHT22;1433;49.976;8.342;2023-02-11T18:55:51;7.60;99.90
2851;DHT22;1433;49.976;8.342;2023-02-11T18:58:18;7.60;99.90
2851;DHT22;1433;49.976;8.342;2023-02-11T19:00:46;7.60;99.90
2851;DHT22;1433;49.976;8.342;2023-02-11T19:03:13;7.60;99.90
2851;DHT22;1433;49.976;8.342;2023-02-11T19:05:44;7.60;99.90
2851;DHT22;1433;49.976;8.342;2023-02-11T19:08:12;7.60;99.90
2851;DHT22;1433;49.976;8.342;2023-02-11T19:10:45;7.60;99.90